Time;durP1;ratioP1;P1;durP2;ratioP2;P2;SDS_P1;SDS_P2;PMS_P1;PMS_P2;Temp;Humidity;BMP_temperature;BMP_pressure;BME280_temperature;BME280_humidity;BME280_pressure;Samples;Min_cycle;Max_cycle;Signal;HPM_P1;HPM_P2
2021/03/15 00:01:23;;;;;;;23.12;19.05;;;;;;;6.49;71.60;99718.27;1780446;78;21157;-41
2021/03/15 00:03:51;;;;;;;25.25;19.02;;;;;;;6.51;71.58;99723.50;1783713;78;21129;-42
2021/03/15 00:06:20;;;;;;;25.90;19.37;;;;;;;6.50;71.57;99721.33;1781547;78;21162;-39
2021/03/15 00:08:47;;;;;;;24.07;18.67;;;;;;;6.52;71.55;99722.55;1778883;79;21105;-38
2021/03/15 00:11:16;;;;;;;21.50;16.82;;;;;;;6.52;71.57;99726.53;1790073;78;21506;-41
2021/03/15 00:13:45;;;;;;;23.52;18.57;;;;;;;6.52;71.60;99717.25;1782340;78;21161;-40
2021/03/15 00:16:14;;;;;;;22.17;17.70;;;;;;;6.51;71.59;99712.91;1784745;78;21578;-39
2021/03/15 00:18:41;;;;;;;25.88;19.87;;;;;;;6.49;71.67;99710.33;1769961;79;21161;-42
2021/03/15 00:21:09;;;;;;;23.40;19.65;;;;;;;6.52;71.67;99704.48;1788243;78;21137;-43
2021/03/15 00:23:38;;;;;;;24.75;17.52;;;;;;;6.49;71.67;99702.38;1790592;78;21645;-43
2021/03/15 00:26:06;;;;;;;29.75;20.82;;;;;;;6.49;71.71;99706.83;1791398;78;21141;-43
2021/03/15 00:28:33;;;;;;;26.75;19.80;;;;;;;6.48;71.76;99702.48;1780802;78;21145;-43
2021/03/15 00:31:01;;;;;;;25.48;19.42;;;;;;;6.46;71.83;99707.85;1780321;79;21181;-45
2021/03/15 00:33:29;;;;;;;23.00;18.42;;;;;;;6.49;71.84;99711.66;1787982;79;21170;-42
2021/03/15 00:35:58;;;;;;;22.25;18.50;;;;;;;6.50;71.81;99710.73;1782988;78;21598;-41
2021/03/15 00:38:26;;;;;;;27.73;21.02;;;;;;;6.52;71.76;99709.31;1779735;78;21131;-42
2021/03/15 00:40:53;;;;;;;24.67;19.82;;;;;;;6.50;71.78;99714.70;1776850;78;21154;-43
2021/03/15 00:43:21;;;;;;;26.37;19.45;;;;;;;6.49;71.72;99719.60;1771834;78;21133;-42
2021/03/15 00:45:50;;;;;;;24.92;18.77;;;;;;;6.50;71.78;99721.77;1784334;78;21153;-42
2021/03/15 00:48:18;;;;;;;23.18;18.27;;;;;;;6.48;71.80;99721.03;1795125;78;21141;-40
2021/03/15 00:50:46;;;;;;;23.62;18.87;;;;;;;6.48;71.76;99717.91;1720786;81;21308;-40
2021/03/15 00:53:15;;;;;;;22.73;19.12;;;;;;;6.48;71.74;99722.35;1751608;79;21186;-39
2021/03/15 00:55:43;;;;;;;24.57;19.70;;;;;;;6.44;71.79;99722.96;1751990;79;21758;-36
2021/03/15 00:58:11;;;;;;;26.20;20.15;;;;;;;6.43;71.86;99723.91;1720325;81;21170;-37
2021/03/15 01:00:39;;;;;;;29.12;20.70;;;;;;;6.41;71.89;99723.14;1730482;81;21157;-40
2021/03/15 01:03:12;;;;;;;25.70;20.17;;;;;;;6.40;72.02;99720.55;1718309;81;21230;-37
2021/03/15 01:05:50;;;;;;;28.55;21.40;;;;;;;6.38;72.17;99715.36;1725176;81;21194;-38
2021/03/15 01:08:26;;;;;;;29.40;21.42;;;;;;;6.42;72.28;99714.72;1820266;76;23405;-40
2021/03/15 01:10:54;;;;;;;28.92;21.02;;;;;;;6.36;72.43;99713.25;1821073;77;21105;-39
2021/03/15 01:13:25;;;;;;;30.95;22.27;;;;;;;6.38;72.54;99711.86;1779542;77;21179;-38
2021/03/15 01:15:53;;;;;;;28.62;21.65;;;;;;;6.38;72.57;99719.33;1822152;77;21143;-38
2021/03/15 01:18:21;;;;;;;31.70;22.85;;;;;;;6.37;72.57;99720.25;1807531;77;21565;-45
2021/03/15 01:20:50;;;;;;;28.40;22.17;;;;;;;6.37;72.57;99721.57;1812620;77;21146;-44
2021/03/15 01:23:17;;;;;;;29.10;22.50;;;;;;;6.39;72.61;99722.83;1756182;80;21182;-40
2021/03/15 01:25:45;;;;;;;32.60;23.15;;;;;;;6.40;72.68;99721.88;1756911;80;21533;-40
2021/03/15 01:28:14;;;;;;;28.10;22.45;;;;;;;6.40;72.69;99716.58;1756723;80;22184;-39
2021/03/15 01:30:43;;;;;;;29.45;22.32;;;;;;;6.42;72.68;99714.72;1759997;79;21156;-40
2021/03/15 01:33:11;;;;;;;32.90;22.85;;;;;;;6.42;72.67;99708.09;1756360;79;21160;-40
2021/03/15 01:35:38;;;;;;;29.87;21.35;;;;;;;6.42;72.69;99714.23;1763212;79;21137;-45
2021/03/15 01:38:06;;;;;;;31.68;21.68;;;;;;;6.44;72.70;99711.52;1761428;79;21145;-43
2021/03/15 01:40:35;;;;;;;30.43;21.20;;;;;;;6.45;72.69;99710.13;1762889;80;21163;-44
2021/03/15 01:43:03;;;;;;;31.45;22.40;;;;;;;6.47;72.67;99703.41;1757862;79;21668;-43
2021/03/15 01:45:31;;;;;;;30.92;22.62;;;;;;;6.47;72.65;99700.28;1749991;79;21542;-55
2021/03/15 01:48:00;;;;;;;30.23;21.77;;;;;;;6.48;72.61;99703.33;1761318;79;21703;-43
2021/03/15 01:50:28;;;;;;;27.25;19.87;;;;;;;6.48;72.58;99697.19;1754711;80;21668;-42
2021/03/15 01:52:55;;;;;;;27.62;21.68;;;;;;;6.50;72.57;99703.23;1752327;80;21644;-41
2021/03/15 01:55:23;;;;;;;27.50;21.37;;;;;;;6.50;72.51;99702.79;1749105;80;21158;-39
2021/03/15 01:57:51;;;;;;;32.90;22.05;;;;;;;6.50;72.49;99701.46;1735567;81;21181;-41
2021/03/15 02:00:19;;;;;;;30.65;22.02;;;;;;;6.49;72.46;99705.51;1730719;81;21160;-41
2021/03/15 02:02:58;;;;;;;27.62;22.90;;;;;;;6.48;72.49;99707.78;1735746;81;21174;-43
2021/03/15 02:05:28;;;;;;;28.57;21.93;;;;;;;6.49;72.50;99708.16;1729990;81;21672;-42
2021/03/15 02:07:56;;;;;;;28.80;22.27;;;;;;;6.48;72.47;99705.98;1727929;81;21166;-41
2021/03/15 02:10:23;;;;;;;28.25;20.97;;;;;;;6.47;72.43;99704.25;1710337;81;21153;-40
2021/03/15 02:13:15;;;;;;;28.52;22.48;;;;;;;6.47;72.44;99708.70;1724611;81;21693;-43
2021/03/15 02:16:13;;;;;;;28.35;21.90;;;;;;;6.45;72.51;99698.20;1722304;81;21145;-41
2021/03/15 02:19:25;;;;;;;28.42;20.72;;;;;;;6.47;72.53;99703.41;1720165;81;21170;-40
2021/03/15 02:22:13;;;;;;;28.00;21.90;;;;;;;6.45;72.47;99703.51;1713372;81;21173;-40
2021/03/15 02:25:08;;;;;;;28.40;21.93;;;;;;;6.44;72.54;99708.88;1716831;81;21130;-42
2021/03/15 02:27:47;;;;;;;29.20;21.55;;;;;;;6.43;72.56;99712.00;1740974;80;21175;-40
2021/03/15 02:30:41;;;;;;;29.48;21.05;;;;;;;6.42;72.53;99708.09;1647691;85;21720;-40
2021/03/15 02:33:23;;;;;;;30.05;21.05;;;;;;;6.41;72.51;99713.02;1674981;83;21188;-41
2021/03/15 02:35:50;;;;;;;27.50;21.02;;;;;;;6.36;72.53;99717.70;1661866;84;21329;-41
2021/03/15 02:38:18;;;;;;;28.73;22.15;;;;;;;6.31;72.62;99712.64;1669711;84;21185;-41
2021/03/15 02:40:56;;;;;;;28.07;21.37;;;;;;;6.25;72.68;99720.45;1676749;84;21195;-41
2021/03/15 02:43:31;;;;;;;29.98;21.40;;;;;;;6.22;72.77;99717.09;1658577;84;21160;-41
2021/03/15 02:46:05;;;;;;;30.40;23.22;;;;;;;6.14;72.97;99717.49;1674504;83;21167;-41
2021/03/15 02:48:36;;;;;;;27.02;20.37;;;;;;;6.12;73.14;99725.13;1677555;84;21180;-42
2021/03/15 02:51:05;;;;;;;28.02;20.97;;;;;;;6.11;73.23;99717.66;1663618;84;21204;-41
2021/03/15 02:53:33;;;;;;;31.73;22.98;;;;;;;6.10;73.29;99709.78;1678815;84;21245;-41
2021/03/15 02:56:07;;;;;;;30.37;21.95;;;;;;;6.05;73.34;99714.88;1678149;84;22117;-41
2021/03/15 02:58:35;;;;;;;31.05;21.80;;;;;;;5.97;73.47;99712.22;1676602;84;22091;-42
2021/03/15 03:01:02;;;;;;;28.47;21.62;;;;;;;5.91;73.65;99709.39;1665581;84;21171;-40
2021/03/15 03:03:31;;;;;;;30.50;22.80;;;;;;;5.88;73.79;99709.55;1654423;84;21140;-44
2021/03/15 03:05:58;;;;;;;29.27;22.00;;;;;;;5.88;73.89;99704.73;1658958;84;21235;-42
2021/03/15 03:08:26;;;;;;;32.75;23.67;;;;;;;5.90;73.91;99711.66;1760594;79;21206;-41
2021/03/15 03:10:53;;;;;;;31.90;21.42;;;;;;;5.95;73.95;99705.70;1781893;79;22036;-42
2021/03/15 03:13:21;;;;;;;28.83;21.87;;;;;;;5.98;73.96;99702.03;1751365;79;21111;-45
2021/03/15 03:15:50;;;;;;;29.87;22.82;;;;;;;6.01;73.92;99704.52;1787182;79;21189;-44
2021/03/15 03:18:20;;;;;;;31.30;23.38;;;;;;;6.04;73.90;99703.87;1777267;79;21599;-40
2021/03/15 03:20:52;;;;;;;29.98;23.27;;;;;;;6.10;73.87;99708.02;1781007;79;21170;-42
2021/03/15 03:23:20;;;;;;;30.37;22.22;;;;;;;6.10;73.76;99697.43;1787184;79;21090;-42
2021/03/15 03:25:48;;;;;;;30.80;21.27;;;;;;;6.14;73.69;99698.95;1778519;79;21129;-42
2021/03/15 03:28:15;;;;;;;26.27;19.77;;;;;;;6.17;73.54;99697.94;1773198;79;21143;-42
2021/03/15 03:30:43;;;;;;;25.97;20.23;;;;;;;6.17;73.34;99709.86;1781184;79;21163;-44
2021/03/15 03:33:11;;;;;;;27.45;21.12;;;;;;;6.15;73.12;99705.10;1752560;79;21154;-40
2021/03/15 03:35:39;;;;;;;30.15;22.27;;;;;;;6.14;73.00;99712.20;1779773;79;21147;-43
2021/03/15 03:38:06;;;;;;;29.02;21.45;;;;;;;6.13;73.06;99711.83;1778969;79;21105;-47
2021/03/15 03:40:34;;;;;;;29.27;21.17;;;;;;;6.14;73.24;99708.70;1780316;79;21185;-42
2021/03/15 03:43:02;;;;;;;28.95;21.62;;;;;;;6.14;73.26;99700.28;1776594;79;21135;-41
2021/03/15 03:45:30;;;;;;;27.48;20.25;;;;;;;6.13;73.22;99697.27;1782034;79;21507;-42
2021/03/15 03:47:57;;;;;;;31.30;22.55;;;;;;;6.12;73.13;99702.15;1783340;79;21147;-43
2021/03/15 03:50:27;;;;;;;31.57;21.68;;;;;;;6.12;73.24;99713.22;1782628;79;21145;-44
2021/03/15 03:53:22;;;;;;;33.30;24.95;;;;;;;6.13;73.51;99713.63;1782086;79;21109;-42
2021/03/15 03:55:57;;;;;;;37.23;25.02;;;;;;;6.15;73.62;99723.64;1783144;78;21649;-41
2021/03/15 03:58:25;;;;;;;34.43;23.95;;;;;;;6.14;73.68;99723.27;1783663;79;21117;-41
2021/03/15 04:00:53;;;;;;;37.17;24.18;;;;;;;6.14;73.67;99718.81;1777449;79;21164;-41
2021/03/15 04:03:23;;;;;;;35.75;24.20;;;;;;;6.13;73.69;99722.89;1778857;79;21141;-42
2021/03/15 04:06:02;;;;;;;32.42;23.90;;;;;;;6.11;73.78;99730.90;1754503;79;21169;-41
2021/03/15 04:08:34;;;;;;;34.00;23.32;;;;;;;6.11;73.86;99719.45;1757689;79;22086;-41
2021/03/15 04:11:02;;;;;;;32.03;22.70;;;;;;;6.11;73.97;99724.75;1750214;80;21116;-41
2021/03/15 04:13:31;;;;;;;35.20;23.83;;;;;;;6.12;74.07;99730.42;1756181;80;21164;-41
2021/03/15 04:15:58;;;;;;;35.83;23.98;;;;;;;6.14;74.12;99731.20;1753657;80;21711;-41
2021/03/15 04:18:26;;;;;;;36.48;24.32;;;;;;;6.13;74.17;99730.35;1753102;80;21152;-44
2021/03/15 04:20:56;;;;;;;37.70;25.62;;;;;;;6.15;74.26;99727.61;1755591;80;21151;-44
2021/03/15 04:23:34;;;;;;;38.23;26.30;;;;;;;6.17;74.30;99726.59;1749418;80;21152;-41
2021/03/15 04:26:01;;;;;;;33.98;24.27;;;;;;;6.18;74.33;99727.47;1754665;80;21154;-41
2021/03/15 04:28:31;;;;;;;40.60;27.30;;;;;;;6.18;74.34;99721.70;1753310;80;22250;-41
2021/03/15 04:30:58;;;;;;;34.85;23.57;;;;;;;6.20;74.31;99722.48;1745183;80;21116;-40
2021/03/15 04:33:26;;;;;;;37.63;25.43;;;;;;;6.20;74.21;99718.52;1752087;80;21163;-43
2021/03/15 04:35:53;;;;;;;33.95;24.32;;;;;;;6.20;74.16;99723.81;1750932;80;21579;-40
2021/03/15 04:38:21;;;;;;;34.38;24.35;;;;;;;6.17;74.21;99722.62;1755018;80;21172;-40
2021/03/15 04:40:48;;;;;;;35.15;23.32;;;;;;;6.16;74.24;99727.54;1753735;80;21177;-42
2021/03/15 04:43:17;;;;;;;31.02;22.95;;;;;;;6.14;74.31;99733.38;1714303;82;21170;-40
2021/03/15 04:45:44;;;;;;;34.85;23.55;;;;;;;6.10;74.44;99738.46;1697517;82;21121;-39
2021/03/15 04:48:21;;;;;;;37.42;26.02;;;;;;;6.08;74.59;99743.45;1716096;81;21151;-47
2021/03/15 04:51:04;;;;;;;39.63;25.37;;;;;;;6.09;74.68;99742.50;1687263;81;21312;-42
2021/03/15 04:53:33;;;;;;;35.43;25.48;;;;;;;6.07;74.73;99747.86;1716217;81;21154;-41
2021/03/15 04:56:02;;;;;;;37.20;25.52;;;;;;;6.07;74.79;99751.83;1719220;81;21194;-40
2021/03/15 04:58:30;;;;;;;32.50;23.92;;;;;;;6.04;74.88;99753.31;1711745;81;21301;-54
2021/03/15 05:01:00;;;;;;;33.28;23.32;;;;;;;6.01;74.99;99757.45;1689136;83;21207;-43
2021/03/15 05:03:28;;;;;;;36.60;25.05;;;;;;;6.01;75.04;99758.30;1702966;83;21113;-44
2021/03/15 05:05:55;;;;;;;35.73;27.25;;;;;;;6.01;75.14;99756.98;1684540;82;21176;-43
2021/03/15 05:08:27;;;;;;;36.08;25.77;;;;;;;5.99;75.23;99752.22;1703222;82;21177;-40
2021/03/15 05:10:54;;;;;;;39.25;27.25;;;;;;;5.97;75.36;99755.88;1700430;82;21130;-41
2021/03/15 05:13:22;;;;;;;39.20;28.07;;;;;;;5.97;75.49;99758.09;1738373;80;21128;-41
2021/03/15 05:15:50;;;;;;;42.43;29.50;;;;;;;5.96;75.58;99753.71;1778063;79;21137;-40
2021/03/15 05:18:17;;;;;;;39.45;28.52;;;;;;;5.97;75.64;99755.44;1735335;80;21125;-41
2021/03/15 05:20:46;;;;;;;37.67;27.00;;;;;;;5.98;75.74;99753.17;1726207;81;21535;-40
2021/03/15 05:23:13;;;;;;;35.35;24.77;;;;;;;6.01;75.75;99749.52;1723846;81;21153;-41
2021/03/15 05:25:43;;;;;;;35.50;27.07;;;;;;;6.01;75.80;99745.55;1775977;79;21158;-40
2021/03/15 05:28:12;;;;;;;37.50;28.45;;;;;;;6.02;75.84;99749.89;1773450;79;21550;-41
2021/03/15 05:30:40;;;;;;;38.85;25.55;;;;;;;6.04;75.94;99751.99;1782598;79;21599;-41
2021/03/15 05:33:12;;;;;;;42.93;27.73;;;;;;;6.06;76.04;99762.89;1773646;79;21566;-42
2021/03/15 05:35:43;;;;;;;40.08;29.32;;;;;;;6.06;76.18;99766.86;1774492;79;21148;-40
2021/03/15 05:38:11;;;;;;;45.33;29.02;;;;;;;6.06;76.33;99768.19;1775902;79;21094;-40
2021/03/15 05:40:42;;;;;;;42.78;30.15;;;;;;;6.08;76.48;99775.21;1779481;79;21577;-39
2021/03/15 05:43:33;;;;;;;43.25;29.60;;;;;;;6.09;76.62;99780.41;1775932;79;21138;-42
2021/03/15 05:46:48;;;;;;;44.88;27.90;;;;;;;6.11;76.68;99771.08;1773801;79;21585;-42
2021/03/15 05:49:58;;;;;;;39.48;28.60;;;;;;;6.12;76.71;99772.78;1783061;79;21129;-41
2021/03/15 05:52:57;;;;;;;49.10;32.48;;;;;;;6.13;76.82;99775.83;1777983;79;21571;-42
2021/03/15 05:56:02;;;;;;;46.53;30.40;;;;;;;6.15;76.87;99777.91;1717993;82;21152;-42
2021/03/15 05:59:08;;;;;;;49.27;31.17;;;;;;;6.19;77.00;99780.80;1807572;78;23095;-53
2021/03/15 06:02:12;;;;;;;49.13;32.40;;;;;;;6.17;77.05;99791.93;1780654;80;21157;-45
2021/03/15 06:05:28;;;;;;;50.05;32.38;;;;;;;6.18;77.14;99791.87;1774452;79;21126;-44
2021/03/15 06:08:21;;;;;;;50.55;31.52;;;;;;;6.21;77.17;99796.15;1773735;80;21130;-43
2021/03/15 06:13:46;;;;;;;58.48;36.70;;;;;;;6.23;77.36;99792.48;1761479;79;23397;-42
2021/03/15 06:18:50;;;;;;;60.88;45.30;;;;;;;6.22;77.58;99790.78;1782648;77;28417;-45
2021/03/15 06:21:17;;;;;;;59.18;40.60;;;;;;;6.20;77.65;99802.36;1781569;79;21613;-44
2021/03/15 06:23:46;;;;;;;64.27;40.10;;;;;;;6.31;77.57;99803.16;1770914;78;21121;-41
2021/03/15 06:26:14;;;;;;;57.60;36.95;;;;;;;6.35;77.50;99800.72;1772166;78;21752;-46
2021/03/15 06:28:41;;;;;;;64.80;39.50;;;;;;;6.38;77.43;99809.38;1774926;78;21152;-46
2021/03/15 06:31:09;;;;;;;51.63;34.58;;;;;;;6.42;77.37;99803.44;1752931;78;21160;-42
2021/03/15 06:33:37;;;;;;;56.20;34.95;;;;;;;6.43;77.29;99802.05;1780258;78;21251;-43
2021/03/15 06:36:05;;;;;;;57.15;34.75;;;;;;;6.43;77.26;99798.08;1753926;80;21640;-44
2021/03/15 06:38:34;;;;;;;56.63;34.07;;;;;;;6.44;77.21;99795.80;1775308;78;21593;-43
2021/03/15 06:41:05;;;;;;;49.63;31.20;;;;;;;6.46;77.20;99803.20;1754200;80;21149;-43
2021/03/15 06:43:33;;;;;;;53.42;31.65;;;;;;;6.48;77.24;99797.84;1776268;78;21106;-43
2021/03/15 06:46:01;;;;;;;49.45;33.13;;;;;;;6.49;77.22;99791.59;1780789;78;21584;-44
2021/03/15 06:48:29;;;;;;;50.85;32.53;;;;;;;6.45;77.27;99796.66;1771728;78;21165;-43
2021/03/15 06:50:57;;;;;;;51.00;31.83;;;;;;;6.44;77.34;99794.95;1717990;81;21157;-42
2021/03/15 06:53:25;;;;;;;50.67;33.10;;;;;;;6.45;77.41;99805.92;1715281;81;22020;-45
2021/03/15 06:55:53;;;;;;;46.23;28.65;;;;;;;6.47;77.46;99811.53;1691050;81;21561;-44
2021/03/15 06:58:26;;;;;;;42.73;27.22;;;;;;;6.49;77.47;99808.81;1700158;81;21157;-41
2021/03/15 07:01:17;;;;;;;43.80;28.95;;;;;;;6.50;77.41;99807.42;1687228;83;21169;-43
2021/03/15 07:03:49;;;;;;;39.48;26.25;;;;;;;6.53;77.29;99807.73;1719279;81;21599;-44
2021/03/15 07:06:19;;;;;;;39.95;27.58;;;;;;;6.52;77.21;99795.41;1715743;81;21529;-42
2021/03/15 07:08:47;;;;;;;33.53;24.00;;;;;;;6.54;77.22;99795.33;1715091;81;21488;-46
2021/03/15 07:11:21;;;;;;;33.73;23.30;;;;;;;6.55;77.19;99793.94;1695905;83;21188;-46
2021/03/15 07:13:49;;;;;;;34.33;25.48;;;;;;;6.57;77.06;99798.66;1693117;82;21529;-49
2021/03/15 07:16:28;;;;;;;31.60;24.02;;;;;;;6.58;76.99;99799.07;1700866;82;21153;-46
2021/03/15 07:19:04;;;;;;;32.80;24.10;;;;;;;6.59;76.93;99794.14;1682880;84;21176;-45
2021/03/15 07:21:36;;;;;;;40.70;29.18;;;;;;;6.59;76.80;99787.52;1704911;81;21173;-45
2021/03/15 07:24:11;;;;;;;35.88;24.18;;;;;;;6.59;76.83;99779.58;1732802;81;21613;-44
2021/03/15 07:26:45;;;;;;;35.40;24.90;;;;;;;6.60;76.90;99776.01;1738261;80;21148;-46
2021/03/15 07:29:17;;;;;;;34.55;26.37;;;;;;;6.60;77.11;99786.61;1728471;80;21145;-43
2021/03/15 07:31:47;;;;;;;34.33;24.00;;;;;;;6.60;77.22;99788.37;1736835;80;21165;-47
2021/03/15 07:34:19;;;;;;;33.67;23.70;;;;;;;6.60;77.26;99790.58;1735506;81;21584;-46
2021/03/15 07:36:56;;;;;;;37.08;23.90;;;;;;;6.63;77.23;99790.89;1703447;82;21599;-47
2021/03/15 07:39:28;;;;;;;32.25;23.87;;;;;;;6.67;77.16;99796.39;1693997;82;21311;-46
2021/03/15 07:41:59;;;;;;;34.30;25.17;;;;;;;6.69;77.12;99795.84;1697323;82;21164;-44
2021/03/15 07:44:33;;;;;;;35.03;25.55;;;;;;;6.70;77.17;99800.19;1734501;80;21550;-45
2021/03/15 07:47:05;;;;;;;29.87;21.23;;;;;;;6.71;77.29;99800.12;1733954;81;21137;-41
2021/03/15 07:49:39;;;;;;;36.17;25.77;;;;;;;6.75;77.30;99811.88;1705687;80;21154;-45
2021/03/15 07:52:12;;;;;;;36.33;24.02;;;;;;;6.76;77.22;99805.66;1732155;81;21145;-45
2021/03/15 07:54:41;;;;;;;32.38;24.10;;;;;;;6.80;77.22;99806.72;1733613;81;21165;-47
2021/03/15 07:57:24;;;;;;;32.95;23.90;;;;;;;6.84;77.13;99806.09;1737520;80;21634;-42
2021/03/15 07:59:58;;;;;;;32.58;23.83;;;;;;;6.88;77.06;99803.69;1735613;80;21174;-42
2021/03/15 08:02:28;;;;;;;31.93;23.95;;;;;;;6.89;76.96;99796.95;1736280;80;21114;-45
2021/03/15 08:04:57;;;;;;;34.23;25.45;;;;;;;6.90;76.92;99801.78;1697572;82;21653;-45
2021/03/15 08:07:26;;;;;;;36.45;24.50;;;;;;;6.89;76.87;99801.41;1734061;80;21530;-43
2021/03/15 08:09:56;;;;;;;30.80;23.90;;;;;;;6.90;76.77;99796.03;1729995;80;21161;-42
2021/03/15 08:12:28;;;;;;;27.62;21.27;;;;;;;6.91;76.80;99798.20;1734315;80;21105;-42
2021/03/15 08:15:04;;;;;;;33.33;21.23;;;;;;;6.92;76.71;99792.80;1733138;80;21690;-41
2021/03/15 08:17:35;;;;;;;29.67;23.50;;;;;;;6.96;76.58;99791.34;1730375;80;21140;-42
2021/03/15 08:20:05;;;;;;;27.35;21.97;;;;;;;6.98;76.47;99788.98;1734823;81;21145;-45
2021/03/15 08:22:35;;;;;;;27.37;21.80;;;;;;;7.00;76.41;99784.91;1735643;80;21114;-45
2021/03/15 08:25:04;;;;;;;28.23;22.25;;;;;;;7.02;76.45;99786.53;1735780;80;21180;-43
2021/03/15 08:27:34;;;;;;;27.32;21.57;;;;;;;7.04;76.46;99783.34;1735082;80;21165;-47
2021/03/15 08:30:02;;;;;;;28.20;22.62;;;;;;;7.05;76.39;99787.69;1739592;81;21573;-46
2021/03/15 08:32:35;;;;;;;26.68;21.37;;;;;;;7.07;76.18;99784.48;1741363;81;21129;-46
2021/03/15 08:35:05;;;;;;;27.30;20.72;;;;;;;7.09;76.03;99776.46;1740544;80;21608;-46
2021/03/15 08:38:01;;;;;;;26.20;21.37;;;;;;;7.11;75.89;99777.23;1719884;81;21569;-47
2021/03/15 08:40:47;;;;;;;26.48;20.43;;;;;;;7.12;75.95;99779.79;1685640;83;21138;-47
2021/03/15 08:43:22;;;;;;;26.82;21.62;;;;;;;7.14;75.83;99773.94;1683622;83;21182;-47
2021/03/15 08:45:55;;;;;;;28.92;21.45;;;;;;;7.15;75.70;99774.30;1684438;83;21531;-47
2021/03/15 08:48:43;;;;;;;25.25;19.45;;;;;;;7.17;75.73;99778.21;1682558;83;21177;-47
2021/03/15 08:51:12;;;;;;;25.57;19.45;;;;;;;7.20;75.61;99775.86;1684248;83;21205;-47
2021/03/15 08:53:48;;;;;;;21.60;18.35;;;;;;;7.21;75.55;99775.79;1684926;83;21162;-47
2021/03/15 08:56:25;;;;;;;23.75;18.20;;;;;;;7.24;75.40;99770.30;1684408;83;21153;-47
2021/03/15 08:58:53;;;;;;;21.50;17.25;;;;;;;7.28;75.25;99761.25;1681814;83;21190;-47
2021/03/15 09:01:24;;;;;;;23.27;19.17;;;;;;;7.31;75.15;99760.22;1631625;86;21184;-47
2021/03/15 09:03:58;;;;;;;20.48;16.73;;;;;;;7.35;75.22;99770.55;1647429;85;21186;-47
2021/03/15 09:06:45;;;;;;;22.27;17.37;;;;;;;7.39;75.06;99763.77;1687640;83;21169;-45
2021/03/15 09:09:30;;;;;;;22.70;17.07;;;;;;;7.46;74.98;99765.10;1799991;77;22956;-42
2021/03/15 09:11:59;;;;;;;20.68;16.05;;;;;;;7.45;75.02;99768.23;1774098;78;21129;-48
2021/03/15 09:14:30;;;;;;;19.55;15.88;;;;;;;7.46;74.94;99764.66;1778896;78;21557;-46
2021/03/15 09:17:18;;;;;;;18.12;15.00;;;;;;;7.49;74.81;99768.93;1779778;78;21121;-46
2021/03/15 09:19:47;;;;;;;19.65;15.48;;;;;;;7.50;74.67;99770.63;1785857;78;21117;-46
2021/03/15 09:22:31;;;;;;;18.25;14.83;;;;;;;7.50;74.53;99770.63;1779701;78;21949;-46
2021/03/15 09:25:04;;;;;;;19.52;14.98;;;;;;;7.51;74.39;99776.30;1780855;79;21154;-47
2021/03/15 09:27:42;;;;;;;18.90;15.58;;;;;;;7.49;74.34;99776.41;1783651;78;21159;-51
2021/03/15 09:30:29;;;;;;;19.12;15.48;;;;;;;7.51;74.31;99771.88;1778374;78;21120;-44
2021/03/15 09:32:58;;;;;;;19.30;15.48;;;;;;;7.52;74.31;99774.05;1717852;81;21142;-45
2021/03/15 09:35:35;;;;;;;17.53;14.90;;;;;;;7.51;74.24;99784.27;1720864;81;21607;-44
2021/03/15 09:38:06;;;;;;;17.85;13.78;;;;;;;7.49;74.25;99784.85;1723542;81;21174;-44
2021/03/15 09:40:36;;;;;;;;;;;;;;;7.46;74.32;99792.52;1723061;81;21161;-43
2021/03/15 09:43:06;;;;;;;17.98;14.58;;;;;;;7.44;74.26;99793.06;1718858;81;20179;-43
2021/03/15 09:45:40;;;;;;;17.12;13.88;;;;;;;7.44;74.22;99793.06;1743042;80;21152;-42
2021/03/15 09:48:22;;;;;;;17.77;14.33;;;;;;;7.42;74.26;99796.75;1721444;81;21142;-45
2021/03/15 09:50:55;;;;;;;17.15;14.30;;;;;;;7.41;74.26;99799.88;1691040;82;21150;-46
2021/03/15 09:53:28;;;;;;;16.12;13.50;;;;;;;7.37;74.26;99796.52;1713472;81;21173;-52
2021/03/15 09:56:09;;;;;;;16.27;13.32;;;;;;;7.34;74.34;99799.83;1708078;82;21166;-46
2021/03/15 09:58:48;;;;;;;14.80;11.15;;;;;;;7.36;74.47;99796.63;1795440;78;23112;-47
2021/03/15 10:01:20;;;;;;;11.68;9.50;;;;;;;7.31;74.61;99797.35;1772388;79;21109;-43
2021/03/15 10:04:00;;;;;;;15.18;11.97;;;;;;;7.31;74.61;99797.35;1774752;79;21142;-44
2021/03/15 10:06:31;;;;;;;12.80;10.35;;;;;;;7.30;74.59;99788.99;1771736;79;21145;-41
2021/03/15 10:08:58;;;;;;;13.20;9.98;;;;;;;7.26;74.68;99790.97;1770273;79;21149;-46
2021/03/15 10:11:45;;;;;;;12.82;10.40;;;;;;;7.26;74.74;99798.08;1706301;79;21137;-46
2021/03/15 10:14:24;;;;;;;12.73;10.55;;;;;;;7.28;74.77;99794.41;1801141;77;22855;-47
2021/03/15 10:17:10;;;;;;;11.05;9.00;;;;;;;7.24;74.84;99790.20;1778127;78;21159;-47
2021/03/15 10:19:53;;;;;;;11.10;9.33;;;;;;;7.28;74.99;99786.89;1769669;79;23024;-42
2021/03/15 10:22:21;;;;;;;11.68;9.85;;;;;;;7.24;74.96;99788.88;1656517;84;21696;-43
2021/03/15 10:24:52;;;;;;;12.70;10.65;;;;;;;7.21;74.99;99793.02;1712836;82;21153;-45
2021/03/15 10:27:23;;;;;;;12.00;10.70;;;;;;;7.19;75.09;99785.62;1710767;82;21164;-42
2021/03/15 10:30:04;;;;;;;13.47;11.23;;;;;;;7.17;75.20;99791.95;1687575;83;21160;-46
2021/03/15 10:32:32;;;;;;;12.43;10.10;;;;;;;7.14;75.33;99793.82;1672349;82;21165;-42
2021/03/15 10:35:05;;;;;;;11.97;9.60;;;;;;;7.10;75.38;99788.29;1698160;82;21181;-46
2021/03/15 10:37:41;;;;;;;11.78;8.75;;;;;;;7.09;75.44;99777.79;1696976;82;21185;-45
2021/03/15 10:40:49;;;;;;;10.65;9.53;;;;;;;7.07;75.45;99764.61;1798487;78;23068;-40
2021/03/15 10:43:26;;;;;;;13.22;10.43;;;;;;;7.04;75.46;99774.06;1770082;79;21116;-43
2021/03/15 10:45:53;;;;;;;12.05;10.60;;;;;;;7.05;75.46;99774.91;1769064;79;21186;-43
2021/03/15 10:48:26;;;;;;;13.62;11.03;;;;;;;7.06;75.47;99773.52;1765516;79;21163;-42
2021/03/15 10:50:58;;;;;;;11.25;9.68;;;;;;;7.03;75.49;99759.11;1764600;79;21129;-41
2021/03/15 10:53:52;;;;;;;13.15;10.25;;;;;;;7.02;75.50;99753.88;1760698;79;21832;-43
2021/03/15 10:56:30;;;;;;;13.35;9.85;;;;;;;7.00;75.62;99756.59;1737886;81;21133;-42
2021/03/15 10:59:00;;;;;;;11.83;10.45;;;;;;;6.98;75.72;99754.53;1680670;82;21746;-46
2021/03/15 11:01:33;;;;;;;12.63;10.95;;;;;;;6.96;75.87;99748.92;1706167;81;21162;-46
2021/03/15 11:04:34;;;;;;;15.15;13.55;;;;;;;6.99;76.10;99744.30;1871445;74;28113;-46
2021/03/15 11:07:21;;;;;;;15.05;11.90;;;;;;;6.99;76.35;99748.75;1876441;75;21132;-45
2021/03/15 11:10:04;;;;;;;15.28;12.23;;;;;;;7.08;76.42;99746.89;1878562;74;21114;-46
2021/03/15 11:12:46;;;;;;;14.38;12.55;;;;;;;7.13;76.47;99752.34;1873276;74;21452;-45
2021/03/15 11:15:33;;;;;;;16.12;11.60;;;;;;;7.15;76.48;99747.79;1862402;74;21183;-42
2021/03/15 11:18:19;;;;;;;15.98;12.55;;;;;;;7.15;76.49;99742.48;1885339;74;21129;-42
2021/03/15 11:21:02;;;;;;;17.77;13.53;;;;;;;7.16;76.66;99740.72;1876690;75;21152;-41
2021/03/15 11:23:34;;;;;;;18.30;13.58;;;;;;;7.18;76.69;99739.28;1877525;75;21125;-42
2021/03/15 11:26:15;;;;;;;18.57;13.85;;;;;;;7.19;76.71;99744.52;1878062;74;21149;-42
2021/03/15 11:28:49;;;;;;;14.38;11.63;;;;;;;7.19;76.74;99743.66;1883708;74;21159;-46
2021/03/15 11:31:21;;;;;;;17.02;13.35;;;;;;;7.18;76.78;99742.78;1881778;75;21125;-51
2021/03/15 11:36:54;;;;;;;16.27;12.28;;;;;;;7.21;76.92;99743.97;1800603;78;23382;-41
2021/03/15 11:39:26;;;;;;;16.95;13.03;;;;;;;7.17;76.90;99746.88;1726225;81;21116;-43
2021/03/15 11:42:05;;;;;;;17.87;14.07;;;;;;;7.17;76.92;99750.37;1715054;81;21658;-43
2021/03/15 11:44:33;;;;;;;16.12;11.70;;;;;;;7.17;76.92;99753.50;1716947;81;21290;-42
2021/03/15 11:47:01;;;;;;;16.55;11.88;;;;;;;7.15;77.01;99754.90;1701398;82;21605;-45
2021/03/15 11:49:31;;;;;;;15.35;11.53;;;;;;;7.18;77.24;99756.05;1713955;82;21156;-45
2021/03/15 11:52:06;;;;;;;15.03;12.23;;;;;;;7.21;77.22;99757.22;1735912;81;21295;-46
2021/03/15 11:54:37;;;;;;;21.75;15.83;;;;;;;7.23;77.33;99759.77;1720704;81;22064;-41
2021/03/15 11:57:05;;;;;;;17.77;14.10;;;;;;;7.25;77.28;99758.74;1708171;80;21192;-44
2021/03/15 11:59:34;;;;;;;16.67;14.10;;;;;;;7.25;77.18;99754.77;1713022;81;21137;-41
2021/03/15 12:02:10;;;;;;;20.27;17.90;;;;;;;7.26;77.19;99749.86;1785477;77;28027;-40
2021/03/15 12:04:54;;;;;;;21.12;15.58;;;;;;;7.23;77.25;99755.34;1783142;79;21152;-44